sensor_id;sensor_type;location;lat;lon;timestamp;P1;durP1;ratioP1;P2;durP2;ratioP2
70929;SDS011;58588;48.102;19.682;2024-03-23T00:55:57;24.65;;;11.55;;
70929;SDS011;58588;48.102;19.682;2024-03-23T00:59:00;25.40;;;11.20;;
70929;SDS011;58588;48.102;19.682;2024-03-23T01:02:02;23.02;;;10.77;;
70929;SDS011;58588;48.102;19.682;2024-03-23T01:05:06;22.90;;;10.97;;
70929;SDS011;58588;48.102;19.682;2024-03-23T01:08:07;25.88;;;11.38;;
70929;SDS011;58588;48.102;19.682;2024-03-23T01:11:10;27.27;;;11.45;;
70929;SDS011;58588;48.102;19.682;2024-03-23T01:14:12;25.27;;;10.73;;
70929;SDS011;58588;48.102;19.682;2024-03-23T01:17:13;23.95;;;11.10;;
70929;SDS011;58588;48.102;19.682;2024-03-23T01:20:15;23.33;;;11.07;;
70929;SDS011;58588;48.102;19.682;2024-03-23T01:23:16;29.13;;;12.68;;
70929;SDS011;58588;48.102;19.682;2024-03-23T01:26:20;30.50;;;13.90;;
70929;SDS011;58588;48.102;19.682;2024-03-23T01:29:21;26.50;;;12.98;;
70929;SDS011;58588;48.102;19.682;2024-03-23T01:32:23;28.20;;;13.00;;
70929;SDS011;58588;48.102;19.682;2024-03-23T01:35:24;33.97;;;15.00;;
70929;SDS011;58588;48.102;19.682;2024-03-23T01:38:26;30.30;;;14.02;;
70929;SDS011;58588;48.102;19.682;2024-03-23T01:41:29;35.53;;;14.57;;
70929;SDS011;58588;48.102;19.682;2024-03-23T01:44:31;33.47;;;14.27;;
70929;SDS011;58588;48.102;19.682;2024-03-23T01:47:32;28.80;;;13.23;;
70929;SDS011;58588;48.102;19.682;2024-03-23T01:50:34;26.90;;;11.98;;
70929;SDS011;58588;48.102;19.682;2024-03-23T01:53:35;29.65;;;12.68;;
70929;SDS011;58588;48.102;19.682;2024-03-23T01:56:39;23.98;;;11.30;;
70929;SDS011;58588;48.102;19.682;2024-03-23T01:59:40;26.97;;;11.00;;
70929;SDS011;58588;48.102;19.682;2024-03-23T02:02:42;25.77;;;12.10;;
70929;SDS011;58588;48.102;19.682;2024-03-23T02:05:44;26.23;;;11.55;;
70929;SDS011;58588;48.102;19.682;2024-03-23T02:08:46;26.30;;;11.73;;
70929;SDS011;58588;48.102;19.682;2024-03-23T02:11:49;28.33;;;11.90;;
70929;SDS011;58588;48.102;19.682;2024-03-23T02:14:50;28.07;;;12.30;;
70929;SDS011;58588;48.102;19.682;2024-03-23T02:17:52;23.10;;;10.57;;
70929;SDS011;58588;48.102;19.682;2024-03-23T02:20:53;25.10;;;11.27;;
70929;SDS011;58588;48.102;19.682;2024-03-23T02:23:57;24.77;;;11.40;;
70929;SDS011;58588;48.102;19.682;2024-03-23T02:26:59;27.73;;;11.82;;
70929;SDS011;58588;48.102;19.682;2024-03-23T02:30:01;21.43;;;10.57;;
70929;SDS011;58588;48.102;19.682;2024-03-23T02:33:02;23.77;;;9.93;;
70929;SDS011;58588;48.102;19.682;2024-03-23T02:36:04;22.60;;;10.50;;
70929;SDS011;58588;48.102;19.682;2024-03-23T02:39:08;24.10;;;10.35;;
70929;SDS011;58588;48.102;19.682;2024-03-23T02:42:09;23.97;;;10.93;;
70929;SDS011;58588;48.102;19.682;2024-03-23T02:45:11;24.00;;;11.00;;
70929;SDS011;58588;48.102;19.682;2024-03-23T02:48:12;25.88;;;10.43;;
70929;SDS011;58588;48.102;19.682;2024-03-23T02:51:14;23.52;;;10.27;;
70929;SDS011;58588;48.102;19.682;2024-03-23T02:54:17;27.45;;;9.85;;
70929;SDS011;58588;48.102;19.682;2024-03-23T02:57:18;20.70;;;9.13;;
70929;SDS011;58588;48.102;19.682;2024-03-23T03:00:20;27.63;;;11.02;;
70929;SDS011;58588;48.102;19.682;2024-03-23T03:03:21;22.10;;;10.20;;
70929;SDS011;58588;48.102;19.682;2024-03-23T03:06:24;22.52;;;10.60;;
70929;SDS011;58588;48.102;19.682;2024-03-23T03:09:26;23.70;;;9.53;;
70929;SDS011;58588;48.102;19.682;2024-03-23T03:12:28;20.80;;;8.80;;
70929;SDS011;58588;48.102;19.682;2024-03-23T03:15:30;21.50;;;9.10;;
70929;SDS011;58588;48.102;19.682;2024-03-23T03:18:31;19.30;;;8.90;;
70929;SDS011;58588;48.102;19.682;2024-03-23T03:21:33;18.40;;;8.13;;
70929;SDS011;58588;48.102;19.682;2024-03-23T03:24:35;21.10;;;8.87;;
70929;SDS011;58588;48.102;19.682;2024-03-23T03:27:37;20.10;;;8.52;;
70929;SDS011;58588;48.102;19.682;2024-03-23T03:30:38;21.13;;;8.95;;
70929;SDS011;58588;48.102;19.682;2024-03-23T03:33:40;22.92;;;9.77;;
70929;SDS011;58588;48.102;19.682;2024-03-23T03:36:42;20.23;;;8.40;;
70929;SDS011;58588;48.102;19.682;2024-03-23T03:39:45;20.97;;;9.10;;
70929;SDS011;58588;48.102;19.682;2024-03-23T03:42:46;17.75;;;7.78;;
70929;SDS011;58588;48.102;19.682;2024-03-23T03:45:51;21.65;;;7.55;;
70929;SDS011;58588;48.102;19.682;2024-03-23T03:48:53;19.02;;;7.28;;
70929;SDS011;58588;48.102;19.682;2024-03-23T03:51:55;17.97;;;7.53;;
70929;SDS011;58588;48.102;19.682;2024-03-23T03:55:01;16.90;;;7.03;;
70929;SDS011;58588;48.102;19.682;2024-03-23T03:58:03;16.75;;;6.93;;
70929;SDS011;58588;48.102;19.682;2024-03-23T04:01:05;20.67;;;7.78;;
70929;SDS011;58588;48.102;19.682;2024-03-23T04:04:07;19.40;;;8.23;;
70929;SDS011;58588;48.102;19.682;2024-03-23T04:07:09;21.40;;;8.60;;
70929;SDS011;58588;48.102;19.682;2024-03-23T04:10:13;23.48;;;10.00;;
70929;SDS011;58588;48.102;19.682;2024-03-23T04:13:16;26.23;;;10.60;;
70929;SDS011;58588;48.102;19.682;2024-03-23T04:16:24;26.67;;;10.88;;
70929;SDS011;58588;48.102;19.682;2024-03-23T04:19:26;28.58;;;11.60;;
70929;SDS011;58588;48.102;19.682;2024-03-23T04:22:29;24.57;;;11.00;;
70929;SDS011;58588;48.102;19.682;2024-03-23T04:25:32;28.20;;;10.52;;
70929;SDS011;58588;48.102;19.682;2024-03-23T04:28:33;24.80;;;11.00;;
70929;SDS011;58588;48.102;19.682;2024-03-23T04:31:35;22.50;;;9.32;;
70929;SDS011;58588;48.102;19.682;2024-03-23T04:34:37;20.83;;;8.55;;
70929;SDS011;58588;48.102;19.682;2024-03-23T04:37:38;21.43;;;8.40;;
70929;SDS011;58588;48.102;19.682;2024-03-23T04:40:43;18.45;;;7.68;;
70929;SDS011;58588;48.102;19.682;2024-03-23T04:43:45;18.75;;;7.95;;
70929;SDS011;58588;48.102;19.682;2024-03-23T04:46:47;19.92;;;8.95;;
70929;SDS011;58588;48.102;19.682;2024-03-23T04:49:49;21.53;;;8.63;;
70929;SDS011;58588;48.102;19.682;2024-03-23T04:52:51;17.93;;;8.00;;
70929;SDS011;58588;48.102;19.682;2024-03-23T04:55:55;18.88;;;7.43;;
70929;SDS011;58588;48.102;19.682;2024-03-23T04:58:57;19.13;;;8.35;;
70929;SDS011;58588;48.102;19.682;2024-03-23T05:02:02;21.85;;;9.15;;
70929;SDS011;58588;48.102;19.682;2024-03-23T05:05:04;21.70;;;8.67;;
70929;SDS011;58588;48.102;19.682;2024-03-23T05:08:07;23.30;;;9.13;;
70929;SDS011;58588;48.102;19.682;2024-03-23T05:11:11;22.33;;;8.60;;
70929;SDS011;58588;48.102;19.682;2024-03-23T05:14:12;20.00;;;8.75;;
70929;SDS011;58588;48.102;19.682;2024-03-23T05:17:15;19.17;;;8.20;;
70929;SDS011;58588;48.102;19.682;2024-03-23T05:20:16;18.53;;;7.57;;
70929;SDS011;58588;48.102;19.682;2024-03-23T05:23:18;19.37;;;7.70;;
70929;SDS011;58588;48.102;19.682;2024-03-23T05:26:21;18.48;;;8.23;;
70929;SDS011;58588;48.102;19.682;2024-03-23T05:29:23;22.50;;;9.68;;
70929;SDS011;58588;48.102;19.682;2024-03-23T05:32:25;20.75;;;9.63;;
70929;SDS011;58588;48.102;19.682;2024-03-23T05:35:26;23.33;;;10.23;;
70929;SDS011;58588;48.102;19.682;2024-03-23T05:38:34;20.00;;;9.43;;
70929;SDS011;58588;48.102;19.682;2024-03-23T05:41:36;21.35;;;9.10;;
70929;SDS011;58588;48.102;19.682;2024-03-23T05:52:21;19.40;;;7.90;;
70929;SDS011;58588;48.102;19.682;2024-03-23T05:55:25;18.65;;;8.40;;
70929;SDS011;58588;48.102;19.682;2024-03-23T05:58:31;18.05;;;8.07;;
70929;SDS011;58588;48.102;19.682;2024-03-23T06:01:34;23.30;;;10.50;;
70929;SDS011;58588;48.102;19.682;2024-03-23T06:08:34;28.67;;;13.47;;
70929;SDS011;58588;48.102;19.682;2024-03-23T06:15:54;32.00;;;11.77;;
70929;SDS011;58588;48.102;19.682;2024-03-23T06:18:57;30.27;;;13.35;;
70929;SDS011;58588;48.102;19.682;2024-03-23T06:21:58;31.63;;;15.13;;
70929;SDS011;58588;48.102;19.682;2024-03-23T06:25:01;36.47;;;15.70;;
70929;SDS011;58588;48.102;19.682;2024-03-23T06:28:03;40.42;;;15.63;;
70929;SDS011;58588;48.102;19.682;2024-03-23T06:31:08;37.42;;;14.23;;
70929;SDS011;58588;48.102;19.682;2024-03-23T06:34:10;30.40;;;13.82;;
70929;SDS011;58588;48.102;19.682;2024-03-23T06:37:13;28.67;;;13.67;;
70929;SDS011;58588;48.102;19.682;2024-03-23T06:40:14;47.17;;;15.13;;
70929;SDS011;58588;48.102;19.682;2024-03-23T06:43:16;32.70;;;15.25;;
70929;SDS011;58588;48.102;19.682;2024-03-23T06:46:19;38.72;;;16.38;;
70929;SDS011;58588;48.102;19.682;2024-03-23T06:49:20;40.47;;;18.48;;
70929;SDS011;58588;48.102;19.682;2024-03-23T06:52:23;41.30;;;20.20;;
70929;SDS011;58588;48.102;19.682;2024-03-23T06:55:24;32.45;;;15.98;;
70929;SDS011;58588;48.102;19.682;2024-03-23T06:58:27;38.30;;;19.83;;
70929;SDS011;58588;48.102;19.682;2024-03-23T07:01:30;40.72;;;20.58;;
70929;SDS011;58588;48.102;19.682;2024-03-23T07:04:32;40.67;;;19.08;;
70929;SDS011;58588;48.102;19.682;2024-03-23T07:07:33;47.57;;;23.77;;
70929;SDS011;58588;48.102;19.682;2024-03-23T07:10:35;40.35;;;19.05;;
70929;SDS011;58588;48.102;19.682;2024-03-23T07:13:40;35.10;;;16.75;;
70929;SDS011;58588;48.102;19.682;2024-03-23T07:16:42;29.85;;;15.35;;
70929;SDS011;58588;48.102;19.682;2024-03-23T07:19:44;26.10;;;12.40;;
70929;SDS011;58588;48.102;19.682;2024-03-23T07:22:47;23.48;;;11.32;;
70929;SDS011;58588;48.102;19.682;2024-03-23T07:25:58;24.48;;;11.73;;
70929;SDS011;58588;48.102;19.682;2024-03-23T07:29:00;24.65;;;12.02;;
70929;SDS011;58588;48.102;19.682;2024-03-23T07:32:04;27.83;;;13.00;;
70929;SDS011;58588;48.102;19.682;2024-03-23T07:35:06;24.00;;;11.77;;
70929;SDS011;58588;48.102;19.682;2024-03-23T07:38:08;22.67;;;10.75;;
70929;SDS011;58588;48.102;19.682;2024-03-23T07:41:10;19.50;;;9.13;;
70929;SDS011;58588;48.102;19.682;2024-03-23T07:44:13;17.05;;;7.97;;
70929;SDS011;58588;48.102;19.682;2024-03-23T07:47:17;20.10;;;9.07;;
70929;SDS011;58588;48.102;19.682;2024-03-23T07:50:19;18.07;;;8.80;;
70929;SDS011;58588;48.102;19.682;2024-03-23T07:53:20;20.52;;;9.20;;
70929;SDS011;58588;48.102;19.682;2024-03-23T07:56:22;16.15;;;8.18;;
70929;SDS011;58588;48.102;19.682;2024-03-23T07:59:24;16.48;;;7.93;;
70929;SDS011;58588;48.102;19.682;2024-03-23T08:02:27;19.30;;;8.37;;
70929;SDS011;58588;48.102;19.682;2024-03-23T08:05:29;15.80;;;7.50;;
70929;SDS011;58588;48.102;19.682;2024-03-23T08:08:30;15.45;;;7.88;;
70929;SDS011;58588;48.102;19.682;2024-03-23T08:11:35;15.20;;;8.20;;
70929;SDS011;58588;48.102;19.682;2024-03-23T08:14:39;15.93;;;7.88;;
70929;SDS011;58588;48.102;19.682;2024-03-23T08:17:41;15.33;;;7.77;;
70929;SDS011;58588;48.102;19.682;2024-03-23T08:20:43;15.02;;;7.60;;
70929;SDS011;58588;48.102;19.682;2024-03-23T08:23:45;16.88;;;7.60;;
70929;SDS011;58588;48.102;19.682;2024-03-23T08:26:46;16.35;;;7.88;;
70929;SDS011;58588;48.102;19.682;2024-03-23T08:29:48;24.97;;;8.33;;
70929;SDS011;58588;48.102;19.682;2024-03-23T08:32:51;15.37;;;7.60;;
70929;SDS011;58588;48.102;19.682;2024-03-23T08:35:53;18.35;;;8.05;;
70929;SDS011;58588;48.102;19.682;2024-03-23T08:38:55;18.27;;;8.65;;
70929;SDS011;58588;48.102;19.682;2024-03-23T08:41:57;18.55;;;8.50;;
70929;SDS011;58588;48.102;19.682;2024-03-23T08:44:59;15.80;;;7.83;;
70929;SDS011;58588;48.102;19.682;2024-03-23T08:48:03;15.98;;;7.75;;
70929;SDS011;58588;48.102;19.682;2024-03-23T08:51:05;17.50;;;8.32;;
70929;SDS011;58588;48.102;19.682;2024-03-23T08:54:08;20.88;;;8.52;;
70929;SDS011;58588;48.102;19.682;2024-03-23T08:57:11;15.95;;;7.78;;
70929;SDS011;58588;48.102;19.682;2024-03-23T09:00:13;16.33;;;7.90;;
70929;SDS011;58588;48.102;19.682;2024-03-23T09:03:17;15.52;;;7.85;;
70929;SDS011;58588;48.102;19.682;2024-03-23T09:06:18;15.13;;;8.48;;
70929;SDS011;58588;48.102;19.682;2024-03-23T09:09:20;17.05;;;8.52;;
70929;SDS011;58588;48.102;19.682;2024-03-23T09:12:22;16.52;;;8.60;;
70929;SDS011;58588;48.102;19.682;2024-03-23T09:15:25;15.40;;;8.10;;
70929;SDS011;58588;48.102;19.682;2024-03-23T09:18:27;15.57;;;8.60;;
70929;SDS011;58588;48.102;19.682;2024-03-23T09:21:29;17.45;;;8.63;;
70929;SDS011;58588;48.102;19.682;2024-03-23T09:24:30;15.63;;;7.93;;
70929;SDS011;58588;48.102;19.682;2024-03-23T09:27:33;13.90;;;7.47;;
70929;SDS011;58588;48.102;19.682;2024-03-23T09:30:34;17.85;;;7.18;;
70929;SDS011;58588;48.102;19.682;2024-03-23T09:33:38;18.80;;;9.02;;
70929;SDS011;58588;48.102;19.682;2024-03-23T09:36:39;16.88;;;7.80;;
70929;SDS011;58588;48.102;19.682;2024-03-23T09:39:41;13.63;;;7.27;;
70929;SDS011;58588;48.102;19.682;2024-03-23T09:42:43;21.60;;;7.43;;
70929;SDS011;58588;48.102;19.682;2024-03-23T09:45:50;15.90;;;6.82;;
70929;SDS011;58588;48.102;19.682;2024-03-23T09:48:55;15.27;;;6.70;;
70929;SDS011;58588;48.102;19.682;2024-03-23T09:51:57;14.25;;;6.93;;
70929;SDS011;58588;48.102;19.682;2024-03-23T09:54:59;12.75;;;6.53;;
70929;SDS011;58588;48.102;19.682;2024-03-23T09:58:01;12.87;;;6.63;;
70929;SDS011;58588;48.102;19.682;2024-03-23T10:01:02;14.07;;;6.90;;
70929;SDS011;58588;48.102;19.682;2024-03-23T10:04:06;12.80;;;6.32;;
70929;SDS011;58588;48.102;19.682;2024-03-23T10:07:10;12.50;;;6.38;;
70929;SDS011;58588;48.102;19.682;2024-03-23T10:10:13;11.55;;;6.28;;
70929;SDS011;58588;48.102;19.682;2024-03-23T10:13:24;14.20;;;7.90;;
70929;SDS011;58588;48.102;19.682;2024-03-23T10:16:26;13.73;;;7.18;;
70929;SDS011;58588;48.102;19.682;2024-03-23T10:19:31;14.02;;;7.68;;
70929;SDS011;58588;48.102;19.682;2024-03-23T10:22:36;14.30;;;7.10;;
70929;SDS011;58588;48.102;19.682;2024-03-23T10:25:37;41.17;;;9.20;;
70929;SDS011;58588;48.102;19.682;2024-03-23T10:28:50;13.82;;;6.90;;
70929;SDS011;58588;48.102;19.682;2024-03-23T10:31:55;13.90;;;7.00;;
70929;SDS011;58588;48.102;19.682;2024-03-23T10:35:18;13.65;;;7.00;;
70929;SDS011;58588;48.102;19.682;2024-03-23T10:38:19;13.65;;;7.50;;
70929;SDS011;58588;48.102;19.682;2024-03-23T10:41:21;15.53;;;7.27;;
70929;SDS011;58588;48.102;19.682;2024-03-23T10:44:26;15.18;;;7.90;;
70929;SDS011;58588;48.102;19.682;2024-03-23T10:47:31;14.82;;;7.70;;
70929;SDS011;58588;48.102;19.682;2024-03-23T10:50:34;14.73;;;7.00;;
70929;SDS011;58588;48.102;19.682;2024-03-23T10:53:36;13.38;;;6.88;;
70929;SDS011;58588;48.102;19.682;2024-03-23T10:56:38;13.10;;;7.30;;
70929;SDS011;58588;48.102;19.682;2024-03-23T10:59:41;14.60;;;6.40;;
70929;SDS011;58588;48.102;19.682;2024-03-23T11:02:42;13.43;;;6.93;;
70929;SDS011;58588;48.102;19.682;2024-03-23T11:05:47;12.48;;;6.35;;
70929;SDS011;58588;48.102;19.682;2024-03-23T11:08:48;47.45;;;10.27;;
70929;SDS011;58588;48.102;19.682;2024-03-23T11:11:50;12.73;;;6.30;;
70929;SDS011;58588;48.102;19.682;2024-03-23T11:14:52;11.85;;;6.13;;
70929;SDS011;58588;48.102;19.682;2024-03-23T11:18:05;12.82;;;6.22;;
70929;SDS011;58588;48.102;19.682;2024-03-23T11:21:09;15.55;;;6.47;;
70929;SDS011;58588;48.102;19.682;2024-03-23T11:24:14;14.00;;;6.95;;
70929;SDS011;58588;48.102;19.682;2024-03-23T11:27:15;11.67;;;6.00;;
70929;SDS011;58588;48.102;19.682;2024-03-23T11:30:18;11.10;;;5.28;;
70929;SDS011;58588;48.102;19.682;2024-03-23T11:33:20;12.85;;;5.78;;
70929;SDS011;58588;48.102;19.682;2024-03-23T11:36:23;11.82;;;5.90;;
70929;SDS011;58588;48.102;19.682;2024-03-23T11:39:24;11.02;;;5.50;;
70929;SDS011;58588;48.102;19.682;2024-03-23T11:42:26;14.33;;;5.67;;
70929;SDS011;58588;48.102;19.682;2024-03-23T11:45:27;10.13;;;5.68;;
70929;SDS011;58588;48.102;19.682;2024-03-23T11:48:30;10.85;;;4.97;;
70929;SDS011;58588;48.102;19.682;2024-03-23T11:51:32;10.55;;;4.90;;
70929;SDS011;58588;48.102;19.682;2024-03-23T11:54:35;10.25;;;4.40;;
70929;SDS011;58588;48.102;19.682;2024-03-23T11:57:36;10.10;;;4.47;;
70929;SDS011;58588;48.102;19.682;2024-03-23T12:00:38;10.07;;;4.78;;
70929;SDS011;58588;48.102;19.682;2024-03-23T12:03:39;10.82;;;5.05;;
70929;SDS011;58588;48.102;19.682;2024-03-23T12:06:47;11.75;;;4.65;;
70929;SDS011;58588;48.102;19.682;2024-03-23T12:10:02;13.68;;;5.47;;
70929;SDS011;58588;48.102;19.682;2024-03-23T12:13:06;11.10;;;4.83;;
70929;SDS011;58588;48.102;19.682;2024-03-23T12:16:09;9.98;;;4.85;;
70929;SDS011;58588;48.102;19.682;2024-03-23T12:19:11;12.02;;;4.50;;
70929;SDS011;58588;48.102;19.682;2024-03-23T12:22:14;11.18;;;4.72;;
70929;SDS011;58588;48.102;19.682;2024-03-23T12:25:17;11.73;;;4.78;;
70929;SDS011;58588;48.102;19.682;2024-03-23T12:28:19;11.17;;;4.40;;
70929;SDS011;58588;48.102;19.682;2024-03-23T12:31:20;14.00;;;4.72;;
70929;SDS011;58588;48.102;19.682;2024-03-23T12:34:21;14.27;;;4.78;;
70929;SDS011;58588;48.102;19.682;2024-03-23T12:37:25;12.27;;;4.70;;
70929;SDS011;58588;48.102;19.682;2024-03-23T12:40:26;11.23;;;4.40;;
70929;SDS011;58588;48.102;19.682;2024-03-23T12:43:28;10.65;;;4.80;;
70929;SDS011;58588;48.102;19.682;2024-03-23T12:49:50;10.70;;;4.80;;
70929;SDS011;58588;48.102;19.682;2024-03-23T12:52:54;10.32;;;5.03;;
70929;SDS011;58588;48.102;19.682;2024-03-23T12:55:56;10.03;;;4.80;;
70929;SDS011;58588;48.102;19.682;2024-03-23T12:58:57;10.10;;;4.70;;
70929;SDS011;58588;48.102;19.682;2024-03-23T13:01:59;22.05;;;13.52;;
70929;SDS011;58588;48.102;19.682;2024-03-23T13:05:00;10.80;;;5.55;;
70929;SDS011;58588;48.102;19.682;2024-03-23T13:08:04;19.33;;;11.47;;
70929;SDS011;58588;48.102;19.682;2024-03-23T13:11:07;11.82;;;5.43;;
70929;SDS011;58588;48.102;19.682;2024-03-23T13:14:09;11.85;;;4.20;;
70929;SDS011;58588;48.102;19.682;2024-03-23T13:17:15;10.32;;;4.95;;
70929;SDS011;58588;48.102;19.682;2024-03-23T13:20:19;15.50;;;6.78;;
70929;SDS011;58588;48.102;19.682;2024-03-23T13:23:22;10.93;;;4.33;;
70929;SDS011;58588;48.102;19.682;2024-03-23T13:26:23;10.27;;;4.82;;
70929;SDS011;58588;48.102;19.682;2024-03-23T13:29:25;19.35;;;11.57;;
70929;SDS011;58588;48.102;19.682;2024-03-23T13:32:27;20.48;;;11.70;;
70929;SDS011;58588;48.102;19.682;2024-03-23T13:35:31;11.57;;;4.70;;
70929;SDS011;58588;48.102;19.682;2024-03-23T13:38:33;10.03;;;4.20;;
70929;SDS011;58588;48.102;19.682;2024-03-23T13:41:35;9.20;;;3.67;;
70929;SDS011;58588;48.102;19.682;2024-03-23T13:44:37;25.02;;;11.63;;
70929;SDS011;58588;48.102;19.682;2024-03-23T13:47:39;8.52;;;3.95;;
70929;SDS011;58588;48.102;19.682;2024-03-23T13:50:40;8.13;;;3.53;;
70929;SDS011;58588;48.102;19.682;2024-03-23T13:53:43;12.57;;;3.97;;
70929;SDS011;58588;48.102;19.682;2024-03-23T13:56:44;11.18;;;4.50;;
70929;SDS011;58588;48.102;19.682;2024-03-23T13:59:46;9.35;;;4.10;;
70929;SDS011;58588;48.102;19.682;2024-03-23T14:02:47;7.82;;;3.63;;
70929;SDS011;58588;48.102;19.682;2024-03-23T14:05:49;10.23;;;5.30;;
70929;SDS011;58588;48.102;19.682;2024-03-23T14:08:54;10.68;;;4.13;;
70929;SDS011;58588;48.102;19.682;2024-03-23T14:11:55;6.85;;;3.25;;
70929;SDS011;58588;48.102;19.682;2024-03-23T14:14:57;10.60;;;5.78;;
70929;SDS011;58588;48.102;19.682;2024-03-23T14:17:58;11.13;;;4.78;;
70929;SDS011;58588;48.102;19.682;2024-03-23T14:21:00;12.50;;;5.27;;
70929;SDS011;58588;48.102;19.682;2024-03-23T14:24:03;12.88;;;5.30;;
70929;SDS011;58588;48.102;19.682;2024-03-23T14:27:06;8.50;;;3.47;;
70929;SDS011;58588;48.102;19.682;2024-03-23T14:30:07;10.00;;;3.50;;
70929;SDS011;58588;48.102;19.682;2024-03-23T14:33:10;12.13;;;5.20;;
70929;SDS011;58588;48.102;19.682;2024-03-23T14:36:11;14.53;;;7.23;;
70929;SDS011;58588;48.102;19.682;2024-03-23T14:39:14;13.43;;;6.63;;
70929;SDS011;58588;48.102;19.682;2024-03-23T14:42:15;11.55;;;4.35;;
70929;SDS011;58588;48.102;19.682;2024-03-23T14:45:17;8.80;;;3.13;;
70929;SDS011;58588;48.102;19.682;2024-03-23T14:48:18;7.87;;;2.97;;
70929;SDS011;58588;48.102;19.682;2024-03-23T14:51:21;18.48;;;11.57;;
70929;SDS011;58588;48.102;19.682;2024-03-23T14:54:24;9.30;;;4.43;;
70929;SDS011;58588;48.102;19.682;2024-03-23T14:57:26;18.10;;;10.13;;
70929;SDS011;58588;48.102;19.682;2024-03-23T15:00:29;14.75;;;7.18;;
70929;SDS011;58588;48.102;19.682;2024-03-23T15:03:31;16.87;;;10.00;;
70929;SDS011;58588;48.102;19.682;2024-03-23T15:06:33;8.50;;;3.58;;
70929;SDS011;58588;48.102;19.682;2024-03-23T15:09:35;7.28;;;3.28;;
70929;SDS011;58588;48.102;19.682;2024-03-23T15:12:37;7.57;;;3.35;;
70929;SDS011;58588;48.102;19.682;2024-03-23T15:15:38;8.40;;;3.83;;
70929;SDS011;58588;48.102;19.682;2024-03-23T15:18:43;8.00;;;3.80;;
70929;SDS011;58588;48.102;19.682;2024-03-23T15:21:44;9.40;;;3.80;;
70929;SDS011;58588;48.102;19.682;2024-03-23T15:24:51;11.68;;;6.10;;
70929;SDS011;58588;48.102;19.682;2024-03-23T15:27:52;13.03;;;7.50;;
70929;SDS011;58588;48.102;19.682;2024-03-23T15:30:58;14.60;;;7.75;;
70929;SDS011;58588;48.102;19.682;2024-03-23T15:34:00;15.98;;;7.30;;
70929;SDS011;58588;48.102;19.682;2024-03-23T15:37:01;16.08;;;8.70;;
70929;SDS011;58588;48.102;19.682;2024-03-23T15:40:06;13.85;;;6.72;;
70929;SDS011;58588;48.102;19.682;2024-03-23T15:43:10;13.00;;;5.63;;
70929;SDS011;58588;48.102;19.682;2024-03-23T15:46:12;10.57;;;4.15;;
70929;SDS011;58588;48.102;19.682;2024-03-23T15:49:14;12.10;;;5.15;;
70929;SDS011;58588;48.102;19.682;2024-03-23T15:52:16;12.65;;;5.05;;
70929;SDS011;58588;48.102;19.682;2024-03-23T15:55:20;11.27;;;4.28;;
70929;SDS011;58588;48.102;19.682;2024-03-23T15:58:20;7.90;;;3.77;;
70929;SDS011;58588;48.102;19.682;2024-03-23T16:01:22;7.38;;;3.50;;
70929;SDS011;58588;48.102;19.682;2024-03-23T16:04:24;8.35;;;3.40;;
70929;SDS011;58588;48.102;19.682;2024-03-23T16:07:26;8.13;;;3.35;;
70929;SDS011;58588;48.102;19.682;2024-03-23T16:10:29;8.40;;;3.95;;
70929;SDS011;58588;48.102;19.682;2024-03-23T16:13:32;8.97;;;3.93;;
70929;SDS011;58588;48.102;19.682;2024-03-23T16:16:34;7.80;;;3.45;;
70929;SDS011;58588;48.102;19.682;2024-03-23T16:19:36;8.52;;;3.60;;
70929;SDS011;58588;48.102;19.682;2024-03-23T16:22:37;8.90;;;3.72;;
70929;SDS011;58588;48.102;19.682;2024-03-23T16:25:47;7.93;;;3.45;;
70929;SDS011;58588;48.102;19.682;2024-03-23T16:28:56;7.67;;;3.80;;
70929;SDS011;58588;48.102;19.682;2024-03-23T16:31:58;7.80;;;3.58;;
70929;SDS011;58588;48.102;19.682;2024-03-23T16:34:59;9.65;;;4.45;;
70929;SDS011;58588;48.102;19.682;2024-03-23T16:38:01;8.02;;;3.85;;
70929;SDS011;58588;48.102;19.682;2024-03-23T16:41:03;8.40;;;4.00;;
70929;SDS011;58588;48.102;19.682;2024-03-23T16:44:07;8.38;;;4.05;;
70929;SDS011;58588;48.102;19.682;2024-03-23T16:47:11;11.82;;;4.00;;
70929;SDS011;58588;48.102;19.682;2024-03-23T16:50:11;17.38;;;7.88;;
70929;SDS011;58588;48.102;19.682;2024-03-23T16:53:13;10.33;;;4.47;;
70929;SDS011;58588;48.102;19.682;2024-03-23T16:56:16;10.77;;;5.68;;
70929;SDS011;58588;48.102;19.682;2024-03-23T16:59:19;12.00;;;5.28;;
70929;SDS011;58588;48.102;19.682;2024-03-23T17:02:21;9.98;;;4.40;;
70929;SDS011;58588;48.102;19.682;2024-03-23T17:05:22;10.07;;;3.73;;
70929;SDS011;58588;48.102;19.682;2024-03-23T17:08:24;8.60;;;4.13;;
70929;SDS011;58588;48.102;19.682;2024-03-23T17:11:26;14.48;;;6.93;;
70929;SDS011;58588;48.102;19.682;2024-03-23T17:14:28;9.95;;;4.57;;
70929;SDS011;58588;48.102;19.682;2024-03-23T17:17:30;12.00;;;5.57;;
70929;SDS011;58588;48.102;19.682;2024-03-23T17:20:31;11.10;;;5.37;;
70929;SDS011;58588;48.102;19.682;2024-03-23T17:23:33;10.25;;;4.45;;
70929;SDS011;58588;48.102;19.682;2024-03-23T17:26:36;12.20;;;4.00;;
70929;SDS011;58588;48.102;19.682;2024-03-23T17:29:38;9.55;;;4.10;;
70929;SDS011;58588;48.102;19.682;2024-03-23T17:32:39;7.43;;;3.13;;
70929;SDS011;58588;48.102;19.682;2024-03-23T17:35:42;8.85;;;3.20;;
70929;SDS011;58588;48.102;19.682;2024-03-23T17:38:44;9.77;;;2.70;;
70929;SDS011;58588;48.102;19.682;2024-03-23T17:41:48;7.40;;;2.90;;
70929;SDS011;58588;48.102;19.682;2024-03-23T17:44:51;8.13;;;3.33;;
70929;SDS011;58588;48.102;19.682;2024-03-23T17:47:53;8.00;;;2.73;;
70929;SDS011;58588;48.102;19.682;2024-03-23T17:51:02;7.18;;;2.00;;
70929;SDS011;58588;48.102;19.682;2024-03-23T17:54:04;6.80;;;2.13;;
70929;SDS011;58588;48.102;19.682;2024-03-23T17:57:08;6.30;;;1.95;;
70929;SDS011;58588;48.102;19.682;2024-03-23T18:00:09;7.17;;;1.30;;
70929;SDS011;58588;48.102;19.682;2024-03-23T18:03:12;7.10;;;1.40;;
70929;SDS011;58588;48.102;19.682;2024-03-23T18:06:14;6.00;;;1.80;;
70929;SDS011;58588;48.102;19.682;2024-03-23T18:09:15;7.32;;;1.98;;
70929;SDS011;58588;48.102;19.682;2024-03-23T18:12:19;8.77;;;1.77;;
70929;SDS011;58588;48.102;19.682;2024-03-23T18:15:21;5.10;;;0.80;;
70929;SDS011;58588;48.102;19.682;2024-03-23T18:18:25;5.37;;;1.33;;
70929;SDS011;58588;48.102;19.682;2024-03-23T18:21:29;3.08;;;0.60;;
70929;SDS011;58588;48.102;19.682;2024-03-23T18:24:31;5.37;;;0.50;;
70929;SDS011;58588;48.102;19.682;2024-03-23T18:27:33;5.65;;;1.30;;
70929;SDS011;58588;48.102;19.682;2024-03-23T18:30:35;3.80;;;0.63;;
70929;SDS011;58588;48.102;19.682;2024-03-23T18:33:39;16.23;;;8.13;;
70929;SDS011;58588;48.102;19.682;2024-03-23T18:36:40;9.52;;;4.32;;
70929;SDS011;58588;48.102;19.682;2024-03-23T18:39:42;17.58;;;9.52;;
70929;SDS011;58588;48.102;19.682;2024-03-23T18:42:45;9.30;;;4.72;;
70929;SDS011;58588;48.102;19.682;2024-03-23T18:45:47;6.33;;;2.00;;
70929;SDS011;58588;48.102;19.682;2024-03-23T18:48:48;5.07;;;1.08;;
70929;SDS011;58588;48.102;19.682;2024-03-23T18:51:54;3.45;;;0.63;;
70929;SDS011;58588;48.102;19.682;2024-03-23T18:54:55;5.15;;;1.00;;
70929;SDS011;58588;48.102;19.682;2024-03-23T18:57:59;3.90;;;0.70;;
70929;SDS011;58588;48.102;19.682;2024-03-23T19:01:01;4.37;;;0.80;;